sensor_id;sensor_type;location;lat;lon;timestamp;temperature;humidity
22379;DHT22;11357;49.990;7.370;2024-01-15T00:01:56;0.40;91.10
22379;DHT22;11357;49.990;7.370;2024-01-15T00:04:22;0.40;91.10
22379;DHT22;11357;49.990;7.370;2024-01-15T00:06:49;0.40;91.10
22379;DHT22;11357;49.990;7.370;2024-01-15T00:09:15;0.50;91.20
22379;DHT22;11357;49.990;7.370;2024-01-15T00:11:41;0.50;91.10
22379;DHT22;11357;49.990;7.370;2024-01-15T00:14:08;0.50;91.10
22379;DHT22;11357;49.990;7.370;2024-01-15T00:16:33;0.50;91.10
22379;DHT22;11357;49.990;7.370;2024-01-15T00:18:59;0.50;91.10
22379;DHT22;11357;49.990;7.370;2024-01-15T00:23:53;0.50;91.10
22379;DHT22;11357;49.990;7.370;2024-01-15T00:26:19;0.50;91.10
22379;DHT22;11357;49.990;7.370;2024-01-15T00:28:45;0.50;91.10
22379;DHT22;11357;49.990;7.370;2024-01-15T00:31:11;0.60;91.10
22379;DHT22;11357;49.990;7.370;2024-01-15T00:33:36;0.60;91.00
22379;DHT22;11357;49.990;7.370;2024-01-15T00:36:02;0.50;91.00
22379;DHT22;11357;49.990;7.370;2024-01-15T00:38:28;0.40;91.10
22379;DHT22;11357;49.990;7.370;2024-01-15T00:40:54;0.40;91.10
22379;DHT22;11357;49.990;7.370;2024-01-15T00:43:20;0.40;91.10
22379;DHT22;11357;49.990;7.370;2024-01-15T00:45:46;0.40;91.20
22379;DHT22;11357;49.990;7.370;2024-01-15T00:48:12;0.40;91.10
22379;DHT22;11357;49.990;7.370;2024-01-15T00:50:38;0.40;91.10
22379;DHT22;11357;49.990;7.370;2024-01-15T00:53:04;0.40;91.20
22379;DHT22;11357;49.990;7.370;2024-01-15T00:55:29;0.40;91.20
22379;DHT22;11357;49.990;7.370;2024-01-15T00:57:55;0.40;91.20
22379;DHT22;11357;49.990;7.370;2024-01-15T01:00:21;0.40;91.20
22379;DHT22;11357;49.990;7.370;2024-01-15T01:02:47;0.30;91.20
22379;DHT22;11357;49.990;7.370;2024-01-15T01:05:12;0.30;91.30
22379;DHT22;11357;49.990;7.370;2024-01-15T01:07:38;0.30;91.40
22379;DHT22;11357;49.990;7.370;2024-01-15T01:10:04;0.30;91.40
22379;DHT22;11357;49.990;7.370;2024-01-15T01:12:30;0.40;91.30
22379;DHT22;11357;49.990;7.370;2024-01-15T01:14:56;0.50;91.30
22379;DHT22;11357;49.990;7.370;2024-01-15T01:17:22;0.50;91.20
22379;DHT22;11357;49.990;7.370;2024-01-15T01:19:49;0.50;91.20
22379;DHT22;11357;49.990;7.370;2024-01-15T01:22:14;0.50;91.20
22379;DHT22;11357;49.990;7.370;2024-01-15T01:24:40;0.60;91.20
22379;DHT22;11357;49.990;7.370;2024-01-15T01:27:06;0.60;91.20
22379;DHT22;11357;49.990;7.370;2024-01-15T01:32:03;0.60;91.20
22379;DHT22;11357;49.990;7.370;2024-01-15T01:34:29;0.60;91.30
22379;DHT22;11357;49.990;7.370;2024-01-15T01:36:55;0.60;91.30
22379;DHT22;11357;49.990;7.370;2024-01-15T01:39:21;0.60;91.30
22379;DHT22;11357;49.990;7.370;2024-01-15T01:41:46;0.60;91.30
22379;DHT22;11357;49.990;7.370;2024-01-15T01:44:12;0.60;91.20
22379;DHT22;11357;49.990;7.370;2024-01-15T01:46:38;0.70;91.20
22379;DHT22;11357;49.990;7.370;2024-01-15T01:49:07;0.70;91.30
22379;DHT22;11357;49.990;7.370;2024-01-15T01:51:34;0.70;91.30
22379;DHT22;11357;49.990;7.370;2024-01-15T01:54:00;0.70;91.20
22379;DHT22;11357;49.990;7.370;2024-01-15T01:56:26;0.70;91.20
22379;DHT22;11357;49.990;7.370;2024-01-15T01:58:52;0.70;91.20
22379;DHT22;11357;49.990;7.370;2024-01-15T02:01:18;0.80;91.20
22379;DHT22;11357;49.990;7.370;2024-01-15T02:03:45;0.80;91.30
22379;DHT22;11357;49.990;7.370;2024-01-15T02:06:11;0.80;91.30
22379;DHT22;11357;49.990;7.370;2024-01-15T02:08:37;0.80;91.30
22379;DHT22;11357;49.990;7.370;2024-01-15T02:14:01;0.80;91.30
22379;DHT22;11357;49.990;7.370;2024-01-15T02:16:43;0.80;91.30
22379;DHT22;11357;49.990;7.370;2024-01-15T02:34:53;1.00;91.30
22379;DHT22;11357;49.990;7.370;2024-01-15T02:37:37;1.00;91.30
22379;DHT22;11357;49.990;7.370;2024-01-15T02:40:02;1.00;91.30
22379;DHT22;11357;49.990;7.370;2024-01-15T02:42:28;1.00;91.30
22379;DHT22;11357;49.990;7.370;2024-01-15T02:44:54;1.00;91.40
22379;DHT22;11357;49.990;7.370;2024-01-15T02:47:20;1.00;91.40
22379;DHT22;11357;49.990;7.370;2024-01-15T02:49:45;1.00;91.40
22379;DHT22;11357;49.990;7.370;2024-01-15T02:52:11;1.10;91.40
22379;DHT22;11357;49.990;7.370;2024-01-15T02:54:36;1.10;91.40
22379;DHT22;11357;49.990;7.370;2024-01-15T02:57:02;1.00;91.40
22379;DHT22;11357;49.990;7.370;2024-01-15T02:59:28;1.10;91.40
22379;DHT22;11357;49.990;7.370;2024-01-15T03:01:53;1.10;91.40
22379;DHT22;11357;49.990;7.370;2024-01-15T03:04:19;1.10;91.40
22379;DHT22;11357;49.990;7.370;2024-01-15T03:06:45;1.10;91.40
22379;DHT22;11357;49.990;7.370;2024-01-15T03:09:10;1.10;91.40
22379;DHT22;11357;49.990;7.370;2024-01-15T03:11:39;1.10;91.50
22379;DHT22;11357;49.990;7.370;2024-01-15T03:14:05;1.00;91.50
22379;DHT22;11357;49.990;7.370;2024-01-15T03:16:31;1.10;91.50
22379;DHT22;11357;49.990;7.370;2024-01-15T03:18:56;1.10;91.50
22379;DHT22;11357;49.990;7.370;2024-01-15T03:21:22;1.10;91.50
22379;DHT22;11357;49.990;7.370;2024-01-15T03:23:48;1.10;91.50
22379;DHT22;11357;49.990;7.370;2024-01-15T03:26:13;1.10;91.50
22379;DHT22;11357;49.990;7.370;2024-01-15T03:28:39;1.10;91.60
22379;DHT22;11357;49.990;7.370;2024-01-15T03:31:05;1.10;91.60
22379;DHT22;11357;49.990;7.370;2024-01-15T03:33:30;1.10;91.60
22379;DHT22;11357;49.990;7.370;2024-01-15T03:35:56;1.10;91.60
22379;DHT22;11357;49.990;7.370;2024-01-15T03:38:23;1.10;91.60
22379;DHT22;11357;49.990;7.370;2024-01-15T03:40:49;1.20;91.60
22379;DHT22;11357;49.990;7.370;2024-01-15T03:43:14;1.20;91.60
22379;DHT22;11357;49.990;7.370;2024-01-15T03:45:40;1.20;91.60
22379;DHT22;11357;49.990;7.370;2024-01-15T03:48:06;1.20;91.70
22379;DHT22;11357;49.990;7.370;2024-01-15T03:50:31;1.20;91.70
22379;DHT22;11357;49.990;7.370;2024-01-15T03:52:57;1.20;91.70
22379;DHT22;11357;49.990;7.370;2024-01-15T03:55:23;1.20;91.70
22379;DHT22;11357;49.990;7.370;2024-01-15T03:57:48;1.20;91.70
22379;DHT22;11357;49.990;7.370;2024-01-15T04:00:15;1.30;91.70
22379;DHT22;11357;49.990;7.370;2024-01-15T04:02:43;1.30;91.70
22379;DHT22;11357;49.990;7.370;2024-01-15T04:05:09;1.30;91.70
22379;DHT22;11357;49.990;7.370;2024-01-15T04:07:35;1.30;91.70
22379;DHT22;11357;49.990;7.370;2024-01-15T04:10:01;1.30;91.70
22379;DHT22;11357;49.990;7.370;2024-01-15T04:12:27;1.30;91.70
22379;DHT22;11357;49.990;7.370;2024-01-15T04:14:52;1.30;91.70
22379;DHT22;11357;49.990;7.370;2024-01-15T04:17:18;1.30;91.70
22379;DHT22;11357;49.990;7.370;2024-01-15T04:19:44;1.30;91.70
22379;DHT22;11357;49.990;7.370;2024-01-15T04:22:09;1.20;91.80
22379;DHT22;11357;49.990;7.370;2024-01-15T04:24:35;1.20;91.90
22379;DHT22;11357;49.990;7.370;2024-01-15T04:27:01;1.30;91.90
22379;DHT22;11357;49.990;7.370;2024-01-15T04:31:54;1.30;91.90
22379;DHT22;11357;49.990;7.370;2024-01-15T04:34:20;1.30;91.90
22379;DHT22;11357;49.990;7.370;2024-01-15T04:36:45;1.20;91.90
22379;DHT22;11357;49.990;7.370;2024-01-15T04:39:11;1.20;92.00
22379;DHT22;11357;49.990;7.370;2024-01-15T04:41:37;1.30;92.00
22379;DHT22;11357;49.990;7.370;2024-01-15T04:44:03;1.30;92.00
22379;DHT22;11357;49.990;7.370;2024-01-15T04:46:28;1.40;91.90
22379;DHT22;11357;49.990;7.370;2024-01-15T04:48:54;1.40;91.90
22379;DHT22;11357;49.990;7.370;2024-01-15T04:51:20;1.40;91.90
22379;DHT22;11357;49.990;7.370;2024-01-15T04:53:45;1.40;91.90
22379;DHT22;11357;49.990;7.370;2024-01-15T04:56:11;1.40;91.90
22379;DHT22;11357;49.990;7.370;2024-01-15T04:58:37;1.40;92.00
22379;DHT22;11357;49.990;7.370;2024-01-15T05:01:02;1.40;92.00
22379;DHT22;11357;49.990;7.370;2024-01-15T05:03:29;1.40;92.00
22379;DHT22;11357;49.990;7.370;2024-01-15T05:05:55;1.40;92.00
22379;DHT22;11357;49.990;7.370;2024-01-15T05:08:20;1.40;92.00
22379;DHT22;11357;49.990;7.370;2024-01-15T05:10:47;1.40;92.00
22379;DHT22;11357;49.990;7.370;2024-01-15T05:13:13;1.50;92.10
22379;DHT22;11357;49.990;7.370;2024-01-15T05:15:38;1.50;92.00
22379;DHT22;11357;49.990;7.370;2024-01-15T05:18:04;1.50;92.00
22379;DHT22;11357;49.990;7.370;2024-01-15T05:20:30;1.60;92.00
22379;DHT22;11357;49.990;7.370;2024-01-15T05:22:56;1.60;92.00
22379;DHT22;11357;49.990;7.370;2024-01-15T05:25:22;1.60;91.90
22379;DHT22;11357;49.990;7.370;2024-01-15T05:27:48;1.60;91.90
22379;DHT22;11357;49.990;7.370;2024-01-15T05:30:14;1.60;92.00
22379;DHT22;11357;49.990;7.370;2024-01-15T05:32:40;1.60;92.00
22379;DHT22;11357;49.990;7.370;2024-01-15T05:35:06;1.70;92.00
22379;DHT22;11357;49.990;7.370;2024-01-15T05:37:31;1.70;92.00
22379;DHT22;11357;49.990;7.370;2024-01-15T05:39:57;1.70;92.00
22379;DHT22;11357;49.990;7.370;2024-01-15T05:42:23;1.70;92.00
22379;DHT22;11357;49.990;7.370;2024-01-15T05:44:48;1.70;92.00
22379;DHT22;11357;49.990;7.370;2024-01-15T05:47:14;1.70;92.00
22379;DHT22;11357;49.990;7.370;2024-01-15T05:49:40;1.60;92.10
22379;DHT22;11357;49.990;7.370;2024-01-15T05:52:05;1.60;92.10
22379;DHT22;11357;49.990;7.370;2024-01-15T05:54:31;1.70;92.20
22379;DHT22;11357;49.990;7.370;2024-01-15T05:56:57;1.70;92.10
22379;DHT22;11357;49.990;7.370;2024-01-15T05:59:23;1.70;92.10
22379;DHT22;11357;49.990;7.370;2024-01-15T06:01:49;1.70;92.10
22379;DHT22;11357;49.990;7.370;2024-01-15T06:04:14;1.70;92.10
22379;DHT22;11357;49.990;7.370;2024-01-15T06:06:40;1.70;92.10
22379;DHT22;11357;49.990;7.370;2024-01-15T06:09:05;1.70;92.20
22379;DHT22;11357;49.990;7.370;2024-01-15T06:11:31;1.70;92.20
22379;DHT22;11357;49.990;7.370;2024-01-15T06:13:57;1.70;92.20
22379;DHT22;11357;49.990;7.370;2024-01-15T06:16:24;1.70;92.20
22379;DHT22;11357;49.990;7.370;2024-01-15T06:18:50;1.70;92.20
22379;DHT22;11357;49.990;7.370;2024-01-15T06:21:16;1.70;92.20
22379;DHT22;11357;49.990;7.370;2024-01-15T06:23:42;1.70;92.20
22379;DHT22;11357;49.990;7.370;2024-01-15T06:26:07;1.70;92.20
22379;DHT22;11357;49.990;7.370;2024-01-15T06:28:33;1.70;92.20
22379;DHT22;11357;49.990;7.370;2024-01-15T06:31:00;1.70;92.20
22379;DHT22;11357;49.990;7.370;2024-01-15T06:33:26;1.70;92.30
22379;DHT22;11357;49.990;7.370;2024-01-15T06:35:51;1.70;92.30
22379;DHT22;11357;49.990;7.370;2024-01-15T06:38:17;1.70;92.30
22379;DHT22;11357;49.990;7.370;2024-01-15T06:40:43;1.80;92.40
22379;DHT22;11357;49.990;7.370;2024-01-15T06:43:13;1.80;92.30
22379;DHT22;11357;49.990;7.370;2024-01-15T06:45:39;1.80;92.30
22379;DHT22;11357;49.990;7.370;2024-01-15T06:48:05;1.80;92.30
22379;DHT22;11357;49.990;7.370;2024-01-15T06:50:31;1.80;92.30
22379;DHT22;11357;49.990;7.370;2024-01-15T06:52:56;1.80;92.30
22379;DHT22;11357;49.990;7.370;2024-01-15T06:55:22;1.80;92.30
22379;DHT22;11357;49.990;7.370;2024-01-15T06:57:48;1.80;92.30
22379;DHT22;11357;49.990;7.370;2024-01-15T07:00:14;1.80;92.40
22379;DHT22;11357;49.990;7.370;2024-01-15T07:02:40;1.80;92.40
22379;DHT22;11357;49.990;7.370;2024-01-15T07:05:05;1.80;92.30
22379;DHT22;11357;49.990;7.370;2024-01-15T07:07:31;1.80;92.40
22379;DHT22;11357;49.990;7.370;2024-01-15T07:09:57;1.80;92.40
22379;DHT22;11357;49.990;7.370;2024-01-15T07:12:23;1.70;92.40
22379;DHT22;11357;49.990;7.370;2024-01-15T07:14:49;1.80;92.70
22379;DHT22;11357;49.990;7.370;2024-01-15T07:17:15;1.80;92.40
22379;DHT22;11357;49.990;7.370;2024-01-15T07:19:41;1.90;92.40
22379;DHT22;11357;49.990;7.370;2024-01-15T07:22:07;1.80;92.30
22379;DHT22;11357;49.990;7.370;2024-01-15T07:24:32;1.90;92.40
22379;DHT22;11357;49.990;7.370;2024-01-15T07:27:01;1.90;92.40
22379;DHT22;11357;49.990;7.370;2024-01-15T07:29:26;1.90;92.30
22379;DHT22;11357;49.990;7.370;2024-01-15T07:31:52;1.90;92.40
22379;DHT22;11357;49.990;7.370;2024-01-15T07:34:19;1.90;92.40
22379;DHT22;11357;49.990;7.370;2024-01-15T07:36:44;1.90;92.30
22379;DHT22;11357;49.990;7.370;2024-01-15T07:39:12;1.90;92.40
22379;DHT22;11357;49.990;7.370;2024-01-15T07:41:38;1.90;92.30
22379;DHT22;11357;49.990;7.370;2024-01-15T07:44:03;2.00;92.30
22379;DHT22;11357;49.990;7.370;2024-01-15T07:46:29;2.00;92.30
22379;DHT22;11357;49.990;7.370;2024-01-15T07:48:55;2.00;92.30
22379;DHT22;11357;49.990;7.370;2024-01-15T07:51:26;2.00;92.30
22379;DHT22;11357;49.990;7.370;2024-01-15T07:53:53;2.10;92.30
22379;DHT22;11357;49.990;7.370;2024-01-15T07:56:20;2.10;92.20
22379;DHT22;11357;49.990;7.370;2024-01-15T07:58:47;2.00;92.20
22379;DHT22;11357;49.990;7.370;2024-01-15T08:01:12;2.10;92.30
22379;DHT22;11357;49.990;7.370;2024-01-15T08:03:38;2.00;92.30
22379;DHT22;11357;49.990;7.370;2024-01-15T08:06:05;2.00;92.30
22379;DHT22;11357;49.990;7.370;2024-01-15T08:08:31;2.10;92.30
22379;DHT22;11357;49.990;7.370;2024-01-15T08:10:56;2.00;92.20
22379;DHT22;11357;49.990;7.370;2024-01-15T08:13:22;2.00;92.30
22379;DHT22;11357;49.990;7.370;2024-01-15T08:15:48;2.00;92.30
22379;DHT22;11357;49.990;7.370;2024-01-15T08:18:13;2.00;92.30
22379;DHT22;11357;49.990;7.370;2024-01-15T08:20:39;2.10;92.40
22379;DHT22;11357;49.990;7.370;2024-01-15T08:23:05;2.10;92.30
22379;DHT22;11357;49.990;7.370;2024-01-15T08:25:30;2.10;92.40
22379;DHT22;11357;49.990;7.370;2024-01-15T08:27:57;2.20;92.40
22379;DHT22;11357;49.990;7.370;2024-01-15T08:30:25;2.20;92.30
22379;DHT22;11357;49.990;7.370;2024-01-15T08:32:53;2.20;92.40
22379;DHT22;11357;49.990;7.370;2024-01-15T08:35:19;2.20;92.30
22379;DHT22;11357;49.990;7.370;2024-01-15T08:37:49;2.20;92.30
22379;DHT22;11357;49.990;7.370;2024-01-15T08:40:15;2.20;92.40
22379;DHT22;11357;49.990;7.370;2024-01-15T08:42:41;2.30;92.40
22379;DHT22;11357;49.990;7.370;2024-01-15T08:45:08;2.30;92.40
22379;DHT22;11357;49.990;7.370;2024-01-15T08:47:33;2.40;92.40
22379;DHT22;11357;49.990;7.370;2024-01-15T08:50:00;2.40;92.30
22379;DHT22;11357;49.990;7.370;2024-01-15T08:52:26;2.40;92.30
22379;DHT22;11357;49.990;7.370;2024-01-15T08:54:51;2.40;92.30
22379;DHT22;11357;49.990;7.370;2024-01-15T08:57:17;2.50;92.30
22379;DHT22;11357;49.990;7.370;2024-01-15T08:59:43;2.50;92.30
22379;DHT22;11357;49.990;7.370;2024-01-15T09:02:08;2.50;92.30
22379;DHT22;11357;49.990;7.370;2024-01-15T09:04:34;2.50;92.20
22379;DHT22;11357;49.990;7.370;2024-01-15T09:07:00;2.50;92.20
22379;DHT22;11357;49.990;7.370;2024-01-15T09:09:25;2.50;92.30
22379;DHT22;11357;49.990;7.370;2024-01-15T09:11:51;2.50;92.30
22379;DHT22;11357;49.990;7.370;2024-01-15T09:14:17;2.50;92.30
22379;DHT22;11357;49.990;7.370;2024-01-15T09:16:43;2.50;92.30
22379;DHT22;11357;49.990;7.370;2024-01-15T09:19:09;2.50;92.40
22379;DHT22;11357;49.990;7.370;2024-01-15T09:21:34;2.50;92.40
22379;DHT22;11357;49.990;7.370;2024-01-15T09:24:00;2.50;92.30
22379;DHT22;11357;49.990;7.370;2024-01-15T09:26:26;2.50;92.40
22379;DHT22;11357;49.990;7.370;2024-01-15T09:28:52;2.50;92.30
22379;DHT22;11357;49.990;7.370;2024-01-15T09:31:17;2.60;92.30
22379;DHT22;11357;49.990;7.370;2024-01-15T09:33:45;2.60;92.40
22379;DHT22;11357;49.990;7.370;2024-01-15T09:36:10;2.60;92.40
22379;DHT22;11357;49.990;7.370;2024-01-15T09:38:36;2.70;92.40
22379;DHT22;11357;49.990;7.370;2024-01-15T09:41:02;2.70;92.40
22379;DHT22;11357;49.990;7.370;2024-01-15T09:43:28;2.70;92.30
22379;DHT22;11357;49.990;7.370;2024-01-15T09:45:54;2.70;92.30
22379;DHT22;11357;49.990;7.370;2024-01-15T09:48:20;2.70;92.40
22379;DHT22;11357;49.990;7.370;2024-01-15T09:50:46;2.70;92.30
22379;DHT22;11357;49.990;7.370;2024-01-15T09:53:12;2.70;92.30
22379;DHT22;11357;49.990;7.370;2024-01-15T09:55:39;2.80;92.30
22379;DHT22;11357;49.990;7.370;2024-01-15T09:58:05;2.80;92.30
22379;DHT22;11357;49.990;7.370;2024-01-15T10:00:31;2.90;92.20
22379;DHT22;11357;49.990;7.370;2024-01-15T10:02:58;2.90;92.20
22379;DHT22;11357;49.990;7.370;2024-01-15T10:05:26;2.90;92.10
22379;DHT22;11357;49.990;7.370;2024-01-15T10:07:54;2.80;92.10
22379;DHT22;11357;49.990;7.370;2024-01-15T10:10:20;2.80;92.10
22379;DHT22;11357;49.990;7.370;2024-01-15T10:12:48;2.80;92.20
22379;DHT22;11357;49.990;7.370;2024-01-15T10:15:14;2.80;92.20
22379;DHT22;11357;49.990;7.370;2024-01-15T10:17:40;2.90;92.10
22379;DHT22;11357;49.990;7.370;2024-01-15T10:20:09;2.90;92.10
22379;DHT22;11357;49.990;7.370;2024-01-15T10:22:35;2.90;92.10
22379;DHT22;11357;49.990;7.370;2024-01-15T10:25:04;2.90;92.00
22379;DHT22;11357;49.990;7.370;2024-01-15T10:27:30;3.00;92.00
22379;DHT22;11357;49.990;7.370;2024-01-15T10:29:59;3.00;92.00
22379;DHT22;11357;49.990;7.370;2024-01-15T10:32:26;3.00;92.10
22379;DHT22;11357;49.990;7.370;2024-01-15T10:34:53;3.10;92.00
22379;DHT22;11357;49.990;7.370;2024-01-15T10:37:19;3.10;92.00
22379;DHT22;11357;49.990;7.370;2024-01-15T10:39:46;3.20;92.00
22379;DHT22;11357;49.990;7.370;2024-01-15T10:42:12;3.20;91.90
22379;DHT22;11357;49.990;7.370;2024-01-15T10:44:38;3.20;91.90
22379;DHT22;11357;49.990;7.370;2024-01-15T10:47:04;3.20;92.00
22379;DHT22;11357;49.990;7.370;2024-01-15T10:49:30;3.20;92.00
22379;DHT22;11357;49.990;7.370;2024-01-15T10:51:56;3.30;92.00
22379;DHT22;11357;49.990;7.370;2024-01-15T10:54:22;3.30;92.10
22379;DHT22;11357;49.990;7.370;2024-01-15T10:56:50;3.40;92.10
22379;DHT22;11357;49.990;7.370;2024-01-15T10:59:16;3.50;92.10
22379;DHT22;11357;49.990;7.370;2024-01-15T11:01:43;3.60;92.10
22379;DHT22;11357;49.990;7.370;2024-01-15T11:04:09;3.60;92.00
22379;DHT22;11357;49.990;7.370;2024-01-15T11:06:42;3.60;91.90
22379;DHT22;11357;49.990;7.370;2024-01-15T11:09:09;3.60;91.90
22379;DHT22;11357;49.990;7.370;2024-01-15T11:11:45;3.60;91.90
22379;DHT22;11357;49.990;7.370;2024-01-15T11:14:38;3.60;91.90
22379;DHT22;11357;49.990;7.370;2024-01-15T11:17:04;3.50;91.80
22379;DHT22;11357;49.990;7.370;2024-01-15T11:24:52;3.60;91.80
22379;DHT22;11357;49.990;7.370;2024-01-15T11:27:41;3.70;91.90
22379;DHT22;11357;49.990;7.370;2024-01-15T11:30:14;3.70;91.90
22379;DHT22;11357;49.990;7.370;2024-01-15T11:32:40;3.80;91.90
22379;DHT22;11357;49.990;7.370;2024-01-15T11:35:09;3.80;91.90
22379;DHT22;11357;49.990;7.370;2024-01-15T11:42:58;3.90;91.70
22379;DHT22;11357;49.990;7.370;2024-01-15T11:45:24;3.90;91.70
22379;DHT22;11357;49.990;7.370;2024-01-15T11:50:49;4.00;91.70
22379;DHT22;11357;49.990;7.370;2024-01-15T11:55:51;4.10;91.60
22379;DHT22;11357;49.990;7.370;2024-01-15T11:58:18;4.10;91.60
22379;DHT22;11357;49.990;7.370;2024-01-15T12:00:47;4.10;91.50
22379;DHT22;11357;49.990;7.370;2024-01-15T12:03:13;4.00;91.50
22379;DHT22;11357;49.990;7.370;2024-01-15T12:05:39;4.00;91.50
22379;DHT22;11357;49.990;7.370;2024-01-15T12:08:04;4.10;91.50
22379;DHT22;11357;49.990;7.370;2024-01-15T12:10:37;4.10;91.40
22379;DHT22;11357;49.990;7.370;2024-01-15T12:13:13;4.10;91.40
22379;DHT22;11357;49.990;7.370;2024-01-15T12:15:43;4.10;91.40
22379;DHT22;11357;49.990;7.370;2024-01-15T12:18:10;4.20;91.40
22379;DHT22;11357;49.990;7.370;2024-01-15T12:20:37;4.30;91.30
22379;DHT22;11357;49.990;7.370;2024-01-15T12:23:03;4.30;91.20
22379;DHT22;11357;49.990;7.370;2024-01-15T12:25:30;4.30;91.20
22379;DHT22;11357;49.990;7.370;2024-01-15T12:27:56;4.30;91.50
22379;DHT22;11357;49.990;7.370;2024-01-15T12:30:22;4.30;91.10
22379;DHT22;11357;49.990;7.370;2024-01-15T12:32:48;4.30;91.10
22379;DHT22;11357;49.990;7.370;2024-01-15T12:35:14;4.30;91.10
22379;DHT22;11357;49.990;7.370;2024-01-15T12:37:41;4.40;91.10
22379;DHT22;11357;49.990;7.370;2024-01-15T12:40:08;4.40;91.10
22379;DHT22;11357;49.990;7.370;2024-01-15T12:42:35;4.40;91.10
22379;DHT22;11357;49.990;7.370;2024-01-15T12:45:02;4.50;91.20
22379;DHT22;11357;49.990;7.370;2024-01-15T12:47:30;4.70;91.20
22379;DHT22;11357;49.990;7.370;2024-01-15T12:49:57;4.70;91.10
22379;DHT22;11357;49.990;7.370;2024-01-15T12:52:23;4.70;91.00
22379;DHT22;11357;49.990;7.370;2024-01-15T12:54:49;4.70;91.00
22379;DHT22;11357;49.990;7.370;2024-01-15T12:57:16;4.70;90.90
22379;DHT22;11357;49.990;7.370;2024-01-15T12:59:42;4.70;90.90
22379;DHT22;11357;49.990;7.370;2024-01-15T13:02:07;4.70;90.90
22379;DHT22;11357;49.990;7.370;2024-01-15T13:04:33;4.70;90.80
22379;DHT22;11357;49.990;7.370;2024-01-15T13:06:59;4.70;90.70
22379;DHT22;11357;49.990;7.370;2024-01-15T13:09:24;4.60;90.70
22379;DHT22;11357;49.990;7.370;2024-01-15T13:11:50;4.50;90.70
22379;DHT22;11357;49.990;7.370;2024-01-15T13:14:16;4.50;90.70
22379;DHT22;11357;49.990;7.370;2024-01-15T13:16:42;4.50;90.70
22379;DHT22;11357;49.990;7.370;2024-01-15T13:19:10;4.40;90.60
22379;DHT22;11357;49.990;7.370;2024-01-15T13:21:42;4.40;90.60
22379;DHT22;11357;49.990;7.370;2024-01-15T13:24:07;4.40;90.60
22379;DHT22;11357;49.990;7.370;2024-01-15T13:26:33;4.30;90.50
22379;DHT22;11357;49.990;7.370;2024-01-15T13:29:03;4.30;90.50
22379;DHT22;11357;49.990;7.370;2024-01-15T13:31:30;4.30;90.60
22379;DHT22;11357;49.990;7.370;2024-01-15T13:33:56;4.30;90.60
22379;DHT22;11357;49.990;7.370;2024-01-15T13:36:22;4.30;90.50
22379;DHT22;11357;49.990;7.370;2024-01-15T13:38:49;4.30;90.50
22379;DHT22;11357;49.990;7.370;2024-01-15T13:41:16;4.30;90.50
22379;DHT22;11357;49.990;7.370;2024-01-15T13:43:50;4.30;90.50
22379;DHT22;11357;49.990;7.370;2024-01-15T13:46:16;4.40;90.50
22379;DHT22;11357;49.990;7.370;2024-01-15T13:48:43;4.30;90.50
22379;DHT22;11357;49.990;7.370;2024-01-15T13:51:09;4.30;90.40
22379;DHT22;11357;49.990;7.370;2024-01-15T13:53:34;4.30;90.50
22379;DHT22;11357;49.990;7.370;2024-01-15T13:56:00;4.30;90.50
22379;DHT22;11357;49.990;7.370;2024-01-15T13:58:26;4.30;90.50
22379;DHT22;11357;49.990;7.370;2024-01-15T14:00:52;4.30;90.40
22379;DHT22;11357;49.990;7.370;2024-01-15T14:03:18;4.30;90.40
22379;DHT22;11357;49.990;7.370;2024-01-15T14:05:44;4.30;90.80
22379;DHT22;11357;49.990;7.370;2024-01-15T14:08:10;4.30;90.40
22379;DHT22;11357;49.990;7.370;2024-01-15T14:10:36;4.30;90.40
22379;DHT22;11357;49.990;7.370;2024-01-15T14:13:03;4.30;90.30
22379;DHT22;11357;49.990;7.370;2024-01-15T14:15:29;4.30;90.40
22379;DHT22;11357;49.990;7.370;2024-01-15T14:17:54;4.30;90.30
22379;DHT22;11357;49.990;7.370;2024-01-15T14:20:20;4.30;90.30
22379;DHT22;11357;49.990;7.370;2024-01-15T14:22:46;4.30;90.30
22379;DHT22;11357;49.990;7.370;2024-01-15T14:25:11;4.40;90.30
22379;DHT22;11357;49.990;7.370;2024-01-15T14:27:37;4.40;90.20
22379;DHT22;11357;49.990;7.370;2024-01-15T14:30:03;4.40;90.20
22379;DHT22;11357;49.990;7.370;2024-01-15T14:32:31;4.30;90.20
22379;DHT22;11357;49.990;7.370;2024-01-15T14:34:56;4.40;90.20
22379;DHT22;11357;49.990;7.370;2024-01-15T14:37:22;4.30;90.10
22379;DHT22;11357;49.990;7.370;2024-01-15T14:39:48;4.30;90.10
22379;DHT22;11357;49.990;7.370;2024-01-15T14:42:13;4.30;90.00
22379;DHT22;11357;49.990;7.370;2024-01-15T14:44:39;4.30;90.00
22379;DHT22;11357;49.990;7.370;2024-01-15T14:47:06;4.30;89.80
22379;DHT22;11357;49.990;7.370;2024-01-15T14:49:33;4.20;89.30
22379;DHT22;11357;49.990;7.370;2024-01-15T14:51:59;4.20;90.00
22379;DHT22;11357;49.990;7.370;2024-01-15T14:54:25;4.20;89.20
22379;DHT22;11357;49.990;7.370;2024-01-15T14:56:51;4.20;89.10
22379;DHT22;11357;49.990;7.370;2024-01-15T14:59:17;4.10;88.80
22379;DHT22;11357;49.990;7.370;2024-01-15T15:01:43;4.00;88.80
22379;DHT22;11357;49.990;7.370;2024-01-15T15:04:08;4.00;88.80
22379;DHT22;11357;49.990;7.370;2024-01-15T15:06:36;4.00;88.80
22379;DHT22;11357;49.990;7.370;2024-01-15T15:09:05;4.00;88.70
22379;DHT22;11357;49.990;7.370;2024-01-15T15:11:35;4.00;88.70
22379;DHT22;11357;49.990;7.370;2024-01-15T15:14:02;4.00;88.70
22379;DHT22;11357;49.990;7.370;2024-01-15T15:16:29;4.00;88.70
22379;DHT22;11357;49.990;7.370;2024-01-15T15:18:55;3.90;88.70
22379;DHT22;11357;49.990;7.370;2024-01-15T15:21:21;3.90;88.60
22379;DHT22;11357;49.990;7.370;2024-01-15T15:23:47;4.00;89.30
22379;DHT22;11357;49.990;7.370;2024-01-15T15:26:15;4.00;88.60
22379;DHT22;11357;49.990;7.370;2024-01-15T15:28:41;3.90;88.60
22379;DHT22;11357;49.990;7.370;2024-01-15T15:31:07;3.90;88.40
22379;DHT22;11357;49.990;7.370;2024-01-15T15:33:34;4.00;88.60
22379;DHT22;11357;49.990;7.370;2024-01-15T15:36:00;4.00;88.50
22379;DHT22;11357;49.990;7.370;2024-01-15T15:38:33;3.90;88.20
22379;DHT22;11357;49.990;7.370;2024-01-15T15:40:59;3.90;88.30
22379;DHT22;11357;49.990;7.370;2024-01-15T15:43:26;3.80;88.30
22379;DHT22;11357;49.990;7.370;2024-01-15T15:45:52;3.80;88.40
22379;DHT22;11357;49.990;7.370;2024-01-15T15:48:17;3.80;88.30
22379;DHT22;11357;49.990;7.370;2024-01-15T15:50:43;3.80;88.30
22379;DHT22;11357;49.990;7.370;2024-01-15T15:53:09;3.80;88.30
22379;DHT22;11357;49.990;7.370;2024-01-15T15:55:35;3.80;88.20
22379;DHT22;11357;49.990;7.370;2024-01-15T15:58:05;3.80;88.20
22379;DHT22;11357;49.990;7.370;2024-01-15T16:00:31;3.90;88.20
22379;DHT22;11357;49.990;7.370;2024-01-15T16:02:57;3.90;88.20
22379;DHT22;11357;49.990;7.370;2024-01-15T16:05:23;3.90;88.10
22379;DHT22;11357;49.990;7.370;2024-01-15T16:07:50;4.00;88.00
22379;DHT22;11357;49.990;7.370;2024-01-15T16:10:16;3.90;87.80
22379;DHT22;11357;49.990;7.370;2024-01-15T16:12:43;3.90;87.70
22379;DHT22;11357;49.990;7.370;2024-01-15T16:15:22;3.90;87.80
22379;DHT22;11357;49.990;7.370;2024-01-15T16:17:52;3.90;87.80
22379;DHT22;11357;49.990;7.370;2024-01-15T16:20:18;3.90;87.70
22379;DHT22;11357;49.990;7.370;2024-01-15T16:22:44;3.80;87.60